Time;durP1;ratioP1;P1;durP2;ratioP2;P2;SDS_P1;SDS_P2;PMS_P1;PMS_P2;Temp;Humidity;BMP_temperature;BMP_pressure;BME280_temperature;BME280_humidity;BME280_pressure;Samples;Min_cycle;Max_cycle;Signal;HPM_P1;HPM_P2
2022/01/04 00:00:54;;;;;;;122.45;110.93;;;9.30;99.90;;;;;;6126366;23;20501;-83
2022/01/04 00:04:26;;;;;;;133.10;121.05;;;9.30;99.90;;;;;;6085548;23;20652;-83
2022/01/04 00:07:14;;;;;;;122.78;110.65;;;9.20;99.90;;;;;;6115644;23;20211;-83
2022/01/04 00:09:57;;;;;;;108.03;97.10;;;9.20;99.90;;;;;;6126240;23;20130;-82
2022/01/04 00:16:05;;;;;;;151.40;138.93;;;9.30;99.90;;;;;;6126380;23;20142;-82
2022/01/04 00:22:11;;;;;;;173.25;160.10;;;9.30;99.90;;;;;;6127244;23;20184;-83
2022/01/04 00:28:57;;;;;;;140.88;128.77;;;9.10;99.90;;;;;;6163055;23;20600;-83
2022/01/04 00:32:14;;;;;;;165.93;152.98;;;9.10;99.90;;;;;;6104247;23;20188;-83
2022/01/04 00:35:55;;;;;;;174.52;160.75;;;9.10;99.90;;;;;;6010423;23;20336;-83
2022/01/04 00:49:38;;;;;;;161.90;149.00;;;9.10;99.90;;;;;;6186384;23;20145;-82
2022/01/04 04:35:01;;;;;;;121.80;110.40;;;8.60;99.90;;;;;;5931610;24;20202;-88
2022/01/04 04:41:39;;;;;;;;;;;;;;;;;;;;;
2022/01/04 04:44:47;;;;;;;115.57;104.40;;;8.70;99.90;;;;;;5993394;23;20227;-88
2022/01/04 04:47:41;;;;;;;115.20;103.78;;;8.70;99.90;;;;;;6103921;23;20154;-87
2022/01/04 04:50:44;;;;;;;135.40;122.90;;;8.80;99.90;;;;;;6103737;23;20157;-88
2022/01/04 04:53:26;;;;;;;120.60;108.88;;;8.70;99.90;;;;;;6103765;23;20643;-91
2022/01/04 04:56:38;;;;;;;123.75;112.18;;;8.70;99.90;;;;;;6104412;23;20174;-88
2022/01/04 04:59:38;;;;;;;125.68;113.60;;;8.70;99.90;;;;;;6095721;23;20150;-88
2022/01/04 05:02:38;;;;;;;110.47;98.70;;;8.70;99.90;;;;;;6105496;23;20212;-88
2022/01/04 05:05:40;;;;;;;113.55;102.45;;;8.70;99.90;;;;;;6100036;23;20249;-88
2022/01/04 05:08:23;;;;;;;118.10;106.32;;;8.70;99.90;;;;;;6127909;23;20173;-87
2022/01/04 05:11:13;;;;;;;;;;;;;;;;;;;;;
2022/01/04 05:13:50;;;;;;;108.22;97.18;;;8.80;99.90;;;;;;6127422;23;20210;-87
2022/01/04 05:20:05;;;;;;;;;;;;;;;;;;;;;
2022/01/04 05:23:11;;;;;;;112.25;101.10;;;8.70;99.90;;;;;;6130686;23;20169;-87
2022/01/04 05:29:46;;;;;;;;;;;;;;;;;;;;;
2022/01/04 05:32:59;;;;;;;115.75;104.53;;;8.50;99.90;;;;;;6129853;23;20190;-88
2022/01/04 05:35:41;;;;;;;120.43;109.10;;;8.50;99.90;;;;;;6052260;22;20573;-88
2022/01/04 05:38:14;;;;;;;113.03;101.80;;;8.40;99.90;;;;;;6042705;23;20156;-88
2022/01/04 05:41:09;;;;;;;127.97;116.22;;;8.40;99.90;;;;;;6045025;23;20175;-88
2022/01/04 05:43:50;;;;;;;111.25;100.20;;;8.40;99.90;;;;;;6044169;23;20192;-88
2022/01/04 05:47:03;;;;;;;107.50;96.43;;;8.50;99.90;;;;;;6044619;23;20148;-88
2022/01/04 05:56:22;;;;;;;114.78;103.57;;;8.50;99.90;;;;;;6086269;23;20184;-89
2022/01/04 05:59:23;;;;;;;;;;;;;;;;;;;;;
2022/01/04 06:01:50;;;;;;;105.60;94.75;;;8.40;99.90;;;;;;6052107;23;20180;-88
2022/01/04 06:04:57;;;;;;;;;;;;;;;;;;;;;
2022/01/04 06:07:33;;;;;;;103.82;92.60;;;8.30;99.90;;;;;;6044518;23;20543;-88
2022/01/04 06:10:36;;;;;;;115.00;103.93;;;8.30;99.90;;;;;;6042642;23;20159;-88
2022/01/04 06:17:01;;;;;;;123.57;112.07;;;8.30;99.90;;;;;;6042562;23;20174;-87
2022/01/04 06:19:59;;;;;;;;;;;;;;;;;;;;;
2022/01/04 06:22:33;;;;;;;114.13;102.90;;;8.20;99.90;;;;;;6039945;23;20172;-87
2022/01/04 06:25:16;;;;;;;120.82;109.03;;;8.20;99.90;;;;;;6188327;22;20217;-87
2022/01/04 06:28:05;;;;;;;128.25;115.93;;;8.20;99.90;;;;;;6280073;22;20150;-87
2022/01/04 06:40:23;;;;;;;127.57;115.70;;;8.10;99.90;;;;;;6249913;23;20144;-87
2022/01/04 06:42:53;;;;;;;129.93;117.97;;;8.00;99.90;;;;;;6250121;23;20140;-87
2022/01/04 06:45:32;;;;;;;148.65;135.55;;;8.10;99.90;;;;;;6222584;23;20164;-87
2022/01/04 06:48:07;;;;;;;149.65;136.90;;;8.10;99.90;;;;;;6223466;23;20198;-87
2022/01/04 06:50:42;;;;;;;129.30;117.38;;;8.00;99.90;;;;;;6221671;23;20147;-87
2022/01/04 06:56:19;;;;;;;145.32;132.80;;;8.00;99.90;;;;;;6045358;23;20230;-88
2022/01/04 06:59:30;;;;;;;153.25;140.18;;;8.10;99.90;;;;;;6036931;23;20129;-88
2022/01/04 07:08:43;;;;;;;146.80;134.10;;;8.20;99.90;;;;;;6038379;23;20491;-87
2022/01/04 07:15:18;;;;;;;;;;;;;;;;;;;;;
2022/01/04 07:22:36;;;;;;;166.43;153.05;;;8.40;99.90;;;;;;6097603;23;20260;-88
2022/01/04 07:25:54;;;;;;;;;;;;;;;;;;;;;
2022/01/04 07:32:27;;;;;;;140.32;127.93;;;8.20;99.90;;;;;;5913308;23;20155;-88
2022/01/04 07:39:25;;;;;;;;;;;;;;;;;;;;;
2022/01/04 07:46:33;;;;;;;135.23;123.07;;;8.20;99.90;;;;;;6094427;23;20525;-88
2022/01/04 07:49:55;;;;;;;150.55;137.75;;;8.20;99.90;;;;;;6038195;23;20210;-88
2022/01/04 07:52:37;;;;;;;147.93;135.25;;;8.30;99.90;;;;;;6024095;23;20177;-88
2022/01/04 07:55:49;;;;;;;150.82;137.82;;;8.30;99.90;;;;;;6012760;23;20231;-87
2022/01/04 07:59:15;;;;;;;144.43;131.77;;;8.20;99.90;;;;;;6033414;23;20223;-88
2022/01/04 08:08:10;;;;;;;157.63;144.38;;;8.30;99.90;;;;;;6069383;23;20158;-87
2022/01/04 08:14:14;;;;;;;165.52;151.50;;;8.30;99.90;;;;;;6061482;23;20187;-87
2022/01/04 08:29:00;;;;;;;170.95;156.77;;;8.20;99.90;;;;;;6119084;23;20202;-88
2022/01/04 08:53:12;;;;;;;;;;;;;;;;;;;;;
2022/01/04 08:59:37;;;;;;;173.73;159.50;;;8.40;99.90;;;;;;5764207;24;20187;-88
2022/01/04 09:03:12;;;;;;;;;;;;;;;;;;;;;
2022/01/04 09:31:42;;;;;;;166.02;152.63;;;8.60;99.90;;;;;;6117452;23;20198;-88
2022/01/04 09:59:49;;;;;;;159.82;146.25;;;8.80;99.90;;;;;;6152717;23;20174;-88
2022/01/04 10:09:54;;;;;;;120.78;109.07;;;8.80;99.90;;;;;;6041296;23;20163;-88
2022/01/04 10:12:59;;;;;;;134.77;122.60;;;8.70;99.90;;;;;;6161160;23;20153;-88
2022/01/04 10:25:45;;;;;;;119.43;107.88;;;8.90;99.90;;;;;;6121782;23;20594;-88
2022/01/04 10:38:45;;;;;;;124.75;112.95;;;9.00;99.90;;;;;;5946942;24;20259;-88
2022/01/04 10:42:01;;;;;;;122.00;110.30;;;8.90;99.90;;;;;;5951369;24;20150;-88
2022/01/04 10:45:08;;;;;;;122.70;111.18;;;8.90;99.90;;;;;;6014158;23;20193;-89
2022/01/04 10:48:51;;;;;;;112.47;101.30;;;9.00;99.90;;;;;;5928665;24;20198;-88
2022/01/04 10:59:04;;;;;;;130.57;117.88;;;9.00;99.90;;;;;;5983322;24;20201;-88
2022/01/04 11:02:17;;;;;;;;;;;;;;;;;;;;;
2022/01/04 11:34:56;;;;;;;118.88;106.97;;;8.90;99.90;;;;;;6122546;23;20240;-89
2022/01/04 11:41:52;;;;;;;;;;;;;;;;;;;;;
2022/01/04 11:44:26;;;;;;;98.13;86.15;;;8.90;99.90;;;;;;6122117;23;20253;-88
2022/01/04 11:58:03;;;;;;;;;;;;;;;;;;;;;
2022/01/04 12:04:32;;;;;;;119.55;108.15;;;8.90;99.90;;;;;;6056598;23;20210;-87
2022/01/04 12:07:41;;;;;;;116.13;104.78;;;9.00;99.90;;;;;;6107893;23;20615;-87
2022/01/04 12:14:35;;;;;;;;;;;;;;;;;;;;;
2022/01/04 12:21:56;;;;;;;;;;;;;;;;;;;;;
2022/01/04 12:24:53;;;;;;;126.53;114.65;;;9.10;99.90;;;;;;5932913;23;20238;-87
2022/01/04 12:31:19;;;;;;;132.27;120.03;;;9.10;99.90;;;;;;6011354;23;20161;-87
2022/01/04 12:37:44;;;;;;;126.60;114.85;;;8.90;99.90;;;;;;6121877;23;20208;-87
2022/01/04 12:40:17;;;;;;;133.73;121.65;;;8.90;99.90;;;;;;6129058;23;20185;-88
2022/01/04 12:49:01;;;;;;;117.32;105.63;;;9.00;99.90;;;;;;6155231;23;20662;-87
2022/01/04 12:52:21;;;;;;;106.18;95.07;;;9.00;99.90;;;;;;6160297;23;20145;-88
2022/01/04 16:53:21;;;;;;;167.32;153.38;;;8.40;99.90;;;;;;6094142;23;20575;-87
2022/01/04 17:09:14;;;;;;;;;;;;;;;;;;;;;
2022/01/04 17:16:04;;;;;;;133.18;120.75;;;8.10;99.90;;;;;;6096849;23;20213;-88
2022/01/04 17:31:59;;;;;;;106.25;95.15;;;8.00;99.90;;;;;;6100257;23;20530;-89
2022/01/04 17:34:26;;;;;;;105.18;93.70;;;7.90;99.90;;;;;;6100926;23;20179;-83
2022/01/04 17:36:53;;;;;;;117.88;106.65;;;7.90;99.90;;;;;;6012316;23;20212;-82
2022/01/04 17:39:23;;;;;;;128.05;116.40;;;7.80;99.90;;;;;;6036954;23;20151;-83
2022/01/04 17:41:51;;;;;;;104.40;93.40;;;7.80;99.90;;;;;;6098983;23;20519;-82
2022/01/04 17:44:17;;;;;;;131.82;119.85;;;7.80;99.90;;;;;;6097899;23;20164;-83
2022/01/04 17:46:46;;;;;;;141.07;128.80;;;7.90;99.90;;;;;;6098393;23;20604;-83
2022/01/04 17:49:12;;;;;;;138.30;126.13;;;7.90;99.90;;;;;;6072407;23;20183;-83
2022/01/04 17:51:40;;;;;;;158.93;145.87;;;8.00;99.90;;;;;;6072889;23;20151;-83
2022/01/04 17:54:06;;;;;;;169.02;155.57;;;8.00;99.90;;;;;;6072127;23;20439;-83
2022/01/04 17:56:32;;;;;;;178.98;164.73;;;8.00;99.90;;;;;;6071954;23;20470;-83
2022/01/04 17:58:57;;;;;;;150.40;137.73;;;8.00;99.90;;;;;;6098261;23;20144;-83
2022/01/04 18:01:23;;;;;;;144.87;132.57;;;8.00;99.90;;;;;;6072304;23;20152;-83
2022/01/04 18:03:49;;;;;;;137.53;125.33;;;8.10;99.90;;;;;;6097956;23;20164;-83
2022/01/04 18:06:15;;;;;;;133.03;121.13;;;8.10;99.90;;;;;;6097796;23;20375;-82
2022/01/04 18:08:41;;;;;;;132.70;120.63;;;8.10;99.90;;;;;;6097343;23;20569;-82
2022/01/04 18:11:07;;;;;;;128.95;116.82;;;8.10;99.90;;;;;;6097230;23;20144;-82
2022/01/04 18:13:33;;;;;;;125.72;113.93;;;8.10;99.90;;;;;;6071086;23;20521;-82
2022/01/04 18:15:59;;;;;;;128.57;116.37;;;8.20;99.90;;;;;;6098371;23;20167;-82
2022/01/04 18:18:25;;;;;;;131.70;119.37;;;8.20;99.90;;;;;;6071834;23;20155;-82
2022/01/04 18:20:53;;;;;;;114.60;103.43;;;8.10;99.90;;;;;;6097518;23;20219;-82
2022/01/04 18:23:19;;;;;;;132.60;120.30;;;8.20;99.90;;;;;;6071948;23;20155;-82
2022/01/04 18:25:44;;;;;;;120.07;108.43;;;8.20;99.90;;;;;;6098570;23;20512;-82
2022/01/04 18:28:11;;;;;;;123.37;111.87;;;8.20;99.90;;;;;;6098885;23;20154;-82
2022/01/04 18:30:37;;;;;;;113.43;102.20;;;8.10;99.90;;;;;;6098772;23;20585;-83
2022/01/04 18:33:09;;;;;;;129.25;117.53;;;8.00;99.90;;;;;;6099457;23;20151;-82
2022/01/04 18:35:35;;;;;;;134.43;122.57;;;8.00;99.90;;;;;;6098538;23;20159;-83
2022/01/04 18:38:01;;;;;;;130.43;118.00;;;8.10;99.90;;;;;;6099381;23;20227;-83
2022/01/04 18:40:26;;;;;;;124.95;113.28;;;8.20;99.90;;;;;;6099161;23;20143;-83
2022/01/04 18:42:52;;;;;;;106.80;95.37;;;8.20;99.90;;;;;;6098784;23;20243;-83
2022/01/04 18:45:18;;;;;;;134.77;122.60;;;8.10;99.90;;;;;;6073094;23;20172;-83
2022/01/04 18:47:46;;;;;;;133.23;121.20;;;8.20;99.90;;;;;;6098908;23;20279;-82
2022/01/04 18:50:14;;;;;;;156.77;143.43;;;8.20;99.90;;;;;;6098416;23;20375;-83
2022/01/04 18:52:40;;;;;;;131.98;119.60;;;8.20;99.90;;;;;;6098448;23;20140;-83
2022/01/04 18:55:08;;;;;;;135.60;123.50;;;8.10;99.90;;;;;;6098549;23;20252;-82
2022/01/04 18:57:34;;;;;;;136.50;124.03;;;8.10;99.90;;;;;;6073236;23;20147;-83
2022/01/04 19:00:00;;;;;;;133.00;120.97;;;8.10;99.90;;;;;;6099176;23;20151;-83
2022/01/04 19:02:25;;;;;;;141.43;128.93;;;8.10;99.90;;;;;;6098472;23;20143;-83
2022/01/04 19:04:51;;;;;;;124.87;113.27;;;8.20;99.90;;;;;;6098616;23;20216;-82
2022/01/04 19:07:17;;;;;;;127.47;115.73;;;8.10;99.90;;;;;;6073850;23;20300;-83
2022/01/04 19:09:42;;;;;;;121.67;110.00;;;8.10;99.90;;;;;;6073273;23;20155;-83
2022/01/04 19:12:08;;;;;;;125.67;113.60;;;8.10;99.90;;;;;;6099382;23;20226;-83
2022/01/04 19:14:34;;;;;;;130.82;118.47;;;7.90;99.90;;;;;;6098414;23;20659;-82
2022/01/04 19:17:01;;;;;;;128.98;117.10;;;8.00;99.90;;;;;;6073564;22;20195;-82
2022/01/04 19:19:27;;;;;;;123.78;112.28;;;8.00;99.90;;;;;;6101152;23;20139;-82
2022/01/04 19:21:53;;;;;;;122.32;110.70;;;8.00;99.90;;;;;;6101734;23;20484;-82
2022/01/04 19:24:19;;;;;;;130.27;117.70;;;8.10;99.90;;;;;;6126971;23;20186;-82
2022/01/04 19:26:50;;;;;;;121.88;110.13;;;8.10;99.90;;;;;;6127130;23;20147;-82
2022/01/04 19:29:19;;;;;;;128.93;116.95;;;8.20;99.90;;;;;;6130198;23;20127;-82
2022/01/04 19:31:54;;;;;;;125.47;113.22;;;8.20;99.90;;;;;;6129410;23;20143;-82
2022/01/04 19:37:08;;;;;;;124.53;112.68;;;8.20;99.90;;;;;;6127232;23;20196;-81
2022/01/04 19:39:34;;;;;;;129.98;117.88;;;8.20;99.90;;;;;;6126848;23;20143;-81
2022/01/04 19:42:01;;;;;;;128.73;116.85;;;8.20;99.90;;;;;;6126969;23;20146;-81
2022/01/04 19:44:28;;;;;;;119.72;107.40;;;8.20;99.90;;;;;;6126363;23;20212;-82
2022/01/04 19:46:54;;;;;;;126.25;113.95;;;8.10;99.90;;;;;;6126694;23;20143;-81
2022/01/04 19:49:24;;;;;;;123.15;111.60;;;8.10;99.90;;;;;;6127359;23;20151;-81
2022/01/04 19:51:50;;;;;;;126.65;114.88;;;8.00;99.90;;;;;;6127010;23;20478;-81
2022/01/04 19:54:16;;;;;;;125.97;113.72;;;8.10;99.90;;;;;;6126490;23;20194;-81
2022/01/04 19:56:42;;;;;;;116.72;105.35;;;8.00;99.90;;;;;;6100538;23;20155;-81
2022/01/04 19:59:09;;;;;;;129.73;117.77;;;8.00;99.90;;;;;;6126991;23;20170;-81
2022/01/04 20:01:35;;;;;;;134.13;121.97;;;8.00;99.90;;;;;;6126856;23;20170;-81
2022/01/04 20:04:01;;;;;;;136.30;124.05;;;7.90;99.90;;;;;;6101183;23;20624;-81
2022/01/04 20:06:29;;;;;;;129.87;117.60;;;7.90;99.90;;;;;;6127489;23;20193;-81
2022/01/04 20:08:57;;;;;;;122.72;110.63;;;7.90;99.90;;;;;;6100031;23;20150;-81
2022/01/04 20:11:23;;;;;;;131.23;119.18;;;7.90;99.90;;;;;;6126563;23;20142;-81
2022/01/04 20:13:49;;;;;;;144.13;131.30;;;7.90;99.90;;;;;;6126080;23;20667;-81
2022/01/04 20:16:20;;;;;;;128.50;116.70;;;7.90;99.90;;;;;;6100747;23;20173;-81
2022/01/04 20:18:45;;;;;;;114.55;103.25;;;8.00;99.90;;;;;;6100222;23;20166;-81
2022/01/04 20:21:14;;;;;;;118.47;107.03;;;8.00;99.90;;;;;;6126243;23;20468;-81
2022/01/04 20:23:41;;;;;;;131.73;119.22;;;8.00;99.90;;;;;;6101603;23;20177;-81
2022/01/04 20:26:07;;;;;;;136.43;123.88;;;8.00;99.90;;;;;;6126697;23;20501;-81
2022/01/04 20:28:33;;;;;;;135.87;123.37;;;8.00;99.90;;;;;;6126507;23;20143;-81
2022/01/04 20:30:58;;;;;;;125.53;113.40;;;8.00;99.90;;;;;;6101039;23;20150;-81
2022/01/04 20:33:24;;;;;;;143.17;130.37;;;8.00;99.90;;;;;;6125894;23;20241;-81
2022/01/04 20:35:50;;;;;;;119.28;107.78;;;8.00;99.90;;;;;;6100455;23;20234;-81
2022/01/04 20:38:16;;;;;;;123.47;111.57;;;8.00;99.90;;;;;;6125970;23;20166;-81
2022/01/04 20:40:42;;;;;;;125.27;113.57;;;8.00;99.90;;;;;;6100503;23;20374;-81
2022/01/04 20:43:08;;;;;;;127.00;115.20;;;8.00;99.90;;;;;;6100304;23;20520;-81
2022/01/04 20:45:35;;;;;;;131.97;119.77;;;8.10;99.90;;;;;;6125957;23;20545;-81
2022/01/04 20:48:01;;;;;;;136.85;124.68;;;8.10;99.90;;;;;;6100623;23;20147;-82
2022/01/04 20:50:26;;;;;;;130.93;119.07;;;8.10;99.90;;;;;;6127913;23;20226;-82
2022/01/04 20:52:52;;;;;;;140.13;127.67;;;8.10;99.90;;;;;;6101839;23;20151;-82
2022/01/04 20:55:20;;;;;;;138.73;126.53;;;8.10;99.90;;;;;;6126732;23;20394;-81
2022/01/04 20:57:46;;;;;;;150.52;137.45;;;8.10;99.90;;;;;;6126706;23;20177;-81
2022/01/04 21:00:18;;;;;;;132.83;120.70;;;8.10;99.90;;;;;;6127062;23;20588;-81
2022/01/04 21:02:45;;;;;;;135.40;122.82;;;8.00;99.90;;;;;;6102305;23;20438;-81
2022/01/04 21:05:12;;;;;;;141.40;129.00;;;8.00;99.90;;;;;;6125931;23;20179;-82
2022/01/04 21:07:38;;;;;;;140.23;127.55;;;8.00;99.90;;;;;;6126723;23;20150;-82
2022/01/04 21:10:05;;;;;;;140.90;128.55;;;8.00;99.90;;;;;;6126693;23;20522;-82
2022/01/04 21:12:32;;;;;;;119.00;107.35;;;7.90;99.90;;;;;;6126068;23;20146;-82
2022/01/04 21:14:58;;;;;;;114.35;102.43;;;7.90;99.90;;;;;;6126279;23;20485;-81
2022/01/04 21:17:24;;;;;;;125.53;113.77;;;7.90;99.90;;;;;;6100085;23;20239;-81
2022/01/04 21:19:49;;;;;;;124.20;112.43;;;7.90;99.90;;;;;;6126410;23;20131;-82
2022/01/04 21:22:15;;;;;;;127.13;115.00;;;7.90;99.90;;;;;;6100547;23;20238;-81
2022/01/04 21:24:41;;;;;;;119.95;108.15;;;7.90;99.90;;;;;;6100326;23;20453;-81
2022/01/04 21:27:08;;;;;;;124.37;112.03;;;7.80;99.90;;;;;;6126173;23;20147;-82
2022/01/04 21:29:34;;;;;;;107.85;96.10;;;7.70;99.90;;;;;;6126152;23;20453;-81
2022/01/04 21:32:01;;;;;;;113.32;97.50;;;7.50;99.90;;;;;;6125897;23;20217;-81
2022/01/04 21:34:26;;;;;;;108.60;97.05;;;7.30;99.90;;;;;;6099971;23;20220;-81
2022/01/04 21:36:52;;;;;;;131.57;118.43;;;7.30;99.90;;;;;;6125722;23;20151;-82
2022/01/04 21:39:18;;;;;;;146.07;132.83;;;7.10;99.90;;;;;;6099733;23;20237;-81
2022/01/04 21:41:44;;;;;;;133.30;120.40;;;7.00;99.90;;;;;;6125770;23;20381;-81
2022/01/04 21:44:10;;;;;;;109.50;97.88;;;7.00;99.90;;;;;;6125922;23;20544;-81
2022/01/04 21:46:36;;;;;;;102.17;90.87;;;6.80;99.90;;;;;;6125601;23;20147;-81
2022/01/04 21:49:02;;;;;;;110.50;99.10;;;6.70;99.90;;;;;;6126326;23;20138;-81
2022/01/04 21:51:27;;;;;;;113.65;101.45;;;6.70;99.90;;;;;;6127523;23;20366;-82
2022/01/04 21:53:53;;;;;;;110.20;98.30;;;6.60;99.90;;;;;;6126942;23;20492;-82
2022/01/04 21:56:19;;;;;;;113.37;101.63;;;6.50;99.90;;;;;;6100053;23;20247;-82
2022/01/04 21:58:45;;;;;;;101.97;90.83;;;6.50;99.90;;;;;;6126731;23;20384;-82
2022/01/04 22:01:10;;;;;;;124.23;112.30;;;6.40;99.90;;;;;;6127109;23;20158;-82
2022/01/04 22:03:36;;;;;;;114.57;103.10;;;6.30;99.90;;;;;;6127207;23;20174;-82
2022/01/04 22:06:02;;;;;;;102.50;91.47;;;6.30;99.90;;;;;;6126571;23;20196;-82
2022/01/04 22:08:27;;;;;;;103.43;92.37;;;6.30;99.90;;;;;;6127609;23;20373;-82
2022/01/04 22:10:53;;;;;;;128.87;116.10;;;6.30;99.90;;;;;;6127891;23;20436;-82
2022/01/04 22:13:19;;;;;;;101.70;90.50;;;6.30;99.90;;;;;;6126745;23;20210;-82
2022/01/04 22:15:44;;;;;;;109.50;98.10;;;6.20;99.90;;;;;;6101652;23;20177;-82
2022/01/04 22:18:10;;;;;;;112.00;100.20;;;6.20;99.90;;;;;;6126679;23;20158;-82
2022/01/04 22:20:40;;;;;;;124.13;112.27;;;6.20;99.90;;;;;;6101302;23;20165;-82
2022/01/04 22:23:05;;;;;;;128.88;116.72;;;6.20;99.90;;;;;;6101261;23;20158;-82
2022/01/04 22:25:32;;;;;;;105.97;94.40;;;6.20;99.90;;;;;;6127132;23;20234;-81
2022/01/04 22:27:57;;;;;;;100.05;84.63;;;6.20;99.90;;;;;;6101715;23;20185;-82
2022/01/04 22:30:25;;;;;;;115.40;103.73;;;6.10;99.90;;;;;;6126560;23;20139;-82
2022/01/04 22:32:51;;;;;;;108.40;97.07;;;6.10;99.90;;;;;;6100527;23;20150;-82
2022/01/04 22:35:17;;;;;;;114.45;102.93;;;6.00;99.90;;;;;;6101243;23;20181;-82
2022/01/04 22:37:44;;;;;;;109.50;98.03;;;6.10;99.90;;;;;;6126769;23;20143;-81
2022/01/04 22:40:11;;;;;;;107.15;95.78;;;6.00;99.90;;;;;;6126879;23;20696;-82
2022/01/04 22:42:37;;;;;;;110.95;99.18;;;6.10;99.90;;;;;;6126949;23;20149;-82
2022/01/04 22:45:04;;;;;;;108.67;90.40;;;6.00;99.90;;;;;;6126610;23;20175;-81
2022/01/04 22:47:30;;;;;;;92.90;63.78;;;6.00;99.90;;;;;;6100844;23;20389;-81
2022/01/04 22:49:56;;;;;;;96.90;73.70;;;6.00;99.90;;;;;;6126440;23;20588;-81
2022/01/04 22:52:22;;;;;;;101.38;87.57;;;6.00;99.90;;;;;;6127330;23;20935;-82
2022/01/04 22:54:49;;;;;;;94.30;69.97;;;6.10;99.90;;;;;;6126005;23;20163;-81
2022/01/04 22:57:16;;;;;;;99.93;84.07;;;6.10;99.90;;;;;;6100685;23;20383;-81
2022/01/04 22:59:42;;;;;;;96.22;67.65;;;6.10;99.90;;;;;;6126958;23;20579;-81
2022/01/04 23:02:08;;;;;;;94.72;70.45;;;6.20;99.90;;;;;;6100356;23;20177;-81
2022/01/04 23:04:34;;;;;;;93.40;72.27;;;6.10;99.90;;;;;;6126907;23;20631;-82
2022/01/04 23:07:00;;;;;;;101.37;67.97;;;6.20;99.90;;;;;;6127369;23;20139;-82
2022/01/04 23:09:26;;;;;;;97.47;70.32;;;6.20;99.90;;;;;;6126527;23;20146;-82
2022/01/04 23:11:51;;;;;;;109.32;97.68;;;6.20;99.90;;;;;;6126682;23;20484;-82
2022/01/04 23:14:18;;;;;;;116.50;100.40;;;6.10;99.90;;;;;;6126740;23;20167;-82
2022/01/04 23:16:44;;;;;;;95.72;75.50;;;6.00;99.90;;;;;;6126498;23;20174;-82
2022/01/04 23:19:10;;;;;;;95.72;72.70;;;5.80;99.90;;;;;;6127306;23;20565;-81
2022/01/04 23:21:35;;;;;;;94.93;74.47;;;5.90;99.90;;;;;;6101210;23;20189;-81
2022/01/04 23:24:05;;;;;;;96.40;67.27;;;6.00;99.90;;;;;;6126709;23;20559;-81
2022/01/04 23:26:31;;;;;;;98.53;70.68;;;5.90;99.90;;;;;;6126473;23;20138;-81
2022/01/04 23:28:57;;;;;;;95.72;70.47;;;5.90;99.90;;;;;;6126782;23;20178;-81
2022/01/04 23:31:23;;;;;;;92.28;62.20;;;5.80;99.90;;;;;;6126778;23;20476;-81
2022/01/04 23:33:49;;;;;;;103.03;77.20;;;5.70;99.90;;;;;;6126301;23;20163;-81
2022/01/04 23:36:14;;;;;;;99.67;80.20;;;5.70;99.90;;;;;;6126165;23;20143;-81
2022/01/04 23:38:41;;;;;;;107.33;91.90;;;5.80;99.90;;;;;;6126870;23;20453;-81
2022/01/04 23:41:08;;;;;;;90.80;65.90;;;5.80;99.90;;;;;;6101135;23;20166;-82
2022/01/04 23:43:33;;;;;;;110.30;96.65;;;5.70;99.90;;;;;;6126784;23;20627;-82
2022/01/04 23:45:59;;;;;;;98.50;78.60;;;5.50;99.90;;;;;;6127100;23;20195;-83
2022/01/04 23:48:25;;;;;;;94.87;69.13;;;5.30;99.90;;;;;;6100459;23;20173;-82
2022/01/04 23:50:51;;;;;;;114.90;102.97;;;5.20;99.90;;;;;;6126811;23;20149;-82
2022/01/04 23:53:16;;;;;;;96.88;83.95;;;5.20;99.90;;;;;;6100981;23;20182;-82
2022/01/04 23:55:42;;;;;;;134.90;122.30;;;5.30;99.90;;;;;;6100817;23;20158;-83
2022/01/04 23:58:09;;;;;;;117.95;106.30;;;5.30;99.90;;;;;;6126195;23;20162;-83
